sensor_id;sensor_type;location;lat;lon;timestamp;P1;durP1;ratioP1;P2;durP2;ratioP2
44832;SDS011;30569;51.252;9.830;2024-03-02T00:00:38;28.80;;;15.75;;
44832;SDS011;30569;51.252;9.830;2024-03-02T00:03:04;31.83;;;15.77;;
44832;SDS011;30569;51.252;9.830;2024-03-02T00:05:32;31.52;;;17.08;;
44832;SDS011;30569;51.252;9.830;2024-03-02T00:07:57;31.42;;;16.38;;
44832;SDS011;30569;51.252;9.830;2024-03-02T00:10:37;32.67;;;15.98;;
44832;SDS011;30569;51.252;9.830;2024-03-02T00:13:07;32.95;;;16.58;;
44832;SDS011;30569;51.252;9.830;2024-03-02T00:15:40;28.13;;;14.55;;
44832;SDS011;30569;51.252;9.830;2024-03-02T00:18:14;32.50;;;16.50;;
44832;SDS011;30569;51.252;9.830;2024-03-02T00:20:44;30.02;;;15.13;;
44832;SDS011;30569;51.252;9.830;2024-03-02T00:23:12;29.30;;;15.20;;
44832;SDS011;30569;51.252;9.830;2024-03-02T00:25:44;33.30;;;15.95;;
44832;SDS011;30569;51.252;9.830;2024-03-02T00:28:16;29.27;;;16.05;;
44832;SDS011;30569;51.252;9.830;2024-03-02T00:33:19;30.42;;;16.48;;
44832;SDS011;30569;51.252;9.830;2024-03-02T00:35:46;27.42;;;14.38;;
44832;SDS011;30569;51.252;9.830;2024-03-02T00:38:12;32.65;;;16.20;;
44832;SDS011;30569;51.252;9.830;2024-03-02T00:40:40;26.42;;;13.63;;
44832;SDS011;30569;51.252;9.830;2024-03-02T00:43:08;25.33;;;13.30;;
44832;SDS011;30569;51.252;9.830;2024-03-02T00:45:52;26.23;;;13.93;;
44832;SDS011;30569;51.252;9.830;2024-03-02T00:48:18;31.38;;;15.57;;
44832;SDS011;30569;51.252;9.830;2024-03-02T00:50:44;31.02;;;14.98;;
44832;SDS011;30569;51.252;9.830;2024-03-02T00:53:11;30.95;;;15.10;;
44832;SDS011;30569;51.252;9.830;2024-03-02T00:55:37;29.83;;;15.32;;
44832;SDS011;30569;51.252;9.830;2024-03-02T00:58:04;32.65;;;16.25;;
44832;SDS011;30569;51.252;9.830;2024-03-02T01:00:30;31.40;;;16.83;;
44832;SDS011;30569;51.252;9.830;2024-03-02T01:02:55;29.23;;;14.70;;
44832;SDS011;30569;51.252;9.830;2024-03-02T01:05:21;30.90;;;15.10;;
44832;SDS011;30569;51.252;9.830;2024-03-02T01:07:46;28.88;;;15.27;;
44832;SDS011;30569;51.252;9.830;2024-03-02T01:10:12;34.95;;;16.67;;
44832;SDS011;30569;51.252;9.830;2024-03-02T01:12:38;33.83;;;15.77;;
44832;SDS011;30569;51.252;9.830;2024-03-02T01:15:04;34.97;;;18.00;;
44832;SDS011;30569;51.252;9.830;2024-03-02T01:17:33;38.22;;;18.48;;
44832;SDS011;30569;51.252;9.830;2024-03-02T01:19:58;36.92;;;18.27;;
44832;SDS011;30569;51.252;9.830;2024-03-02T01:22:24;37.50;;;17.48;;
44832;SDS011;30569;51.252;9.830;2024-03-02T01:24:50;33.95;;;16.85;;
44832;SDS011;30569;51.252;9.830;2024-03-02T01:27:16;31.67;;;17.00;;
44832;SDS011;30569;51.252;9.830;2024-03-02T01:29:42;35.25;;;17.83;;
44832;SDS011;30569;51.252;9.830;2024-03-02T01:32:07;32.47;;;16.90;;
44832;SDS011;30569;51.252;9.830;2024-03-02T01:34:33;32.05;;;16.80;;
44832;SDS011;30569;51.252;9.830;2024-03-02T01:36:58;38.70;;;17.98;;
44832;SDS011;30569;51.252;9.830;2024-03-02T01:39:24;31.67;;;17.30;;
44832;SDS011;30569;51.252;9.830;2024-03-02T01:41:49;37.97;;;17.02;;
44832;SDS011;30569;51.252;9.830;2024-03-02T01:44:15;34.53;;;16.95;;
44832;SDS011;30569;51.252;9.830;2024-03-02T01:46:41;35.40;;;17.38;;
44832;SDS011;30569;51.252;9.830;2024-03-02T01:49:06;39.17;;;19.10;;
44832;SDS011;30569;51.252;9.830;2024-03-02T01:51:32;40.30;;;19.38;;
44832;SDS011;30569;51.252;9.830;2024-03-02T01:53:58;32.77;;;18.13;;
44832;SDS011;30569;51.252;9.830;2024-03-02T01:56:23;33.75;;;18.00;;
44832;SDS011;30569;51.252;9.830;2024-03-02T01:58:49;39.03;;;18.63;;
44832;SDS011;30569;51.252;9.830;2024-03-02T02:01:14;36.13;;;18.15;;
44832;SDS011;30569;51.252;9.830;2024-03-02T02:03:41;32.90;;;16.17;;
44832;SDS011;30569;51.252;9.830;2024-03-02T02:06:08;28.80;;;15.57;;
44832;SDS011;30569;51.252;9.830;2024-03-02T02:08:36;36.30;;;18.02;;
44832;SDS011;30569;51.252;9.830;2024-03-02T02:11:02;32.35;;;17.80;;
44832;SDS011;30569;51.252;9.830;2024-03-02T02:13:27;34.33;;;17.73;;
44832;SDS011;30569;51.252;9.830;2024-03-02T02:15:53;35.97;;;17.30;;
44832;SDS011;30569;51.252;9.830;2024-03-02T02:18:19;37.00;;;17.80;;
44832;SDS011;30569;51.252;9.830;2024-03-02T02:20:44;35.10;;;18.05;;
44832;SDS011;30569;51.252;9.830;2024-03-02T02:23:10;38.22;;;18.58;;
44832;SDS011;30569;51.252;9.830;2024-03-02T02:25:38;34.43;;;17.47;;
44832;SDS011;30569;51.252;9.830;2024-03-02T02:28:03;36.58;;;17.75;;
44832;SDS011;30569;51.252;9.830;2024-03-02T02:30:30;33.92;;;17.75;;
44832;SDS011;30569;51.252;9.830;2024-03-02T02:32:57;34.67;;;18.33;;
44832;SDS011;30569;51.252;9.830;2024-03-02T02:35:23;32.90;;;18.15;;
44832;SDS011;30569;51.252;9.830;2024-03-02T02:37:52;30.73;;;15.68;;
44832;SDS011;30569;51.252;9.830;2024-03-02T02:40:18;29.80;;;16.77;;
44832;SDS011;30569;51.252;9.830;2024-03-02T02:42:44;27.83;;;15.55;;
44832;SDS011;30569;51.252;9.830;2024-03-02T02:45:10;29.50;;;15.60;;
44832;SDS011;30569;51.252;9.830;2024-03-02T02:47:38;29.08;;;16.33;;
44832;SDS011;30569;51.252;9.830;2024-03-02T02:50:03;34.90;;;15.95;;
44832;SDS011;30569;51.252;9.830;2024-03-02T02:52:33;27.55;;;14.43;;
44832;SDS011;30569;51.252;9.830;2024-03-02T02:55:01;25.15;;;13.50;;
44832;SDS011;30569;51.252;9.830;2024-03-02T02:57:31;29.23;;;15.77;;
44832;SDS011;30569;51.252;9.830;2024-03-02T03:00:00;29.15;;;14.45;;
44832;SDS011;30569;51.252;9.830;2024-03-02T03:02:31;25.83;;;14.87;;
44832;SDS011;30569;51.252;9.830;2024-03-02T03:04:56;31.30;;;14.43;;
44832;SDS011;30569;51.252;9.830;2024-03-02T03:07:22;25.85;;;14.98;;
44832;SDS011;30569;51.252;9.830;2024-03-02T03:09:48;29.30;;;15.07;;
44832;SDS011;30569;51.252;9.830;2024-03-02T03:12:13;27.08;;;13.93;;
44832;SDS011;30569;51.252;9.830;2024-03-02T03:14:42;27.77;;;14.13;;
44832;SDS011;30569;51.252;9.830;2024-03-02T03:17:08;24.58;;;13.25;;
44832;SDS011;30569;51.252;9.830;2024-03-02T03:19:33;30.50;;;15.50;;
44832;SDS011;30569;51.252;9.830;2024-03-02T03:21:59;28.90;;;14.73;;
44832;SDS011;30569;51.252;9.830;2024-03-02T03:24:25;30.20;;;15.20;;
44832;SDS011;30569;51.252;9.830;2024-03-02T03:26:51;28.77;;;14.97;;
44832;SDS011;30569;51.252;9.830;2024-03-02T03:29:16;29.07;;;14.00;;
44832;SDS011;30569;51.252;9.830;2024-03-02T03:31:42;28.23;;;15.07;;
44832;SDS011;30569;51.252;9.830;2024-03-02T03:34:07;27.83;;;15.30;;
44832;SDS011;30569;51.252;9.830;2024-03-02T03:36:33;27.73;;;15.00;;
44832;SDS011;30569;51.252;9.830;2024-03-02T03:38:58;30.08;;;14.73;;
44832;SDS011;30569;51.252;9.830;2024-03-02T03:41:24;29.40;;;15.03;;
44832;SDS011;30569;51.252;9.830;2024-03-02T03:43:49;25.07;;;13.53;;
44832;SDS011;30569;51.252;9.830;2024-03-02T03:46:15;27.87;;;15.07;;
44832;SDS011;30569;51.252;9.830;2024-03-02T03:48:41;25.73;;;13.10;;
44832;SDS011;30569;51.252;9.830;2024-03-02T03:51:07;27.60;;;13.70;;
44832;SDS011;30569;51.252;9.830;2024-03-02T03:53:32;25.00;;;13.63;;
44832;SDS011;30569;51.252;9.830;2024-03-02T03:55:58;26.97;;;14.10;;
44832;SDS011;30569;51.252;9.830;2024-03-02T03:58:24;28.13;;;14.67;;
44832;SDS011;30569;51.252;9.830;2024-03-02T04:00:49;27.37;;;14.30;;
44832;SDS011;30569;51.252;9.830;2024-03-02T04:03:15;32.00;;;14.90;;
44832;SDS011;30569;51.252;9.830;2024-03-02T04:05:41;27.00;;;14.37;;
44832;SDS011;30569;51.252;9.830;2024-03-02T04:08:06;27.77;;;14.80;;
44832;SDS011;30569;51.252;9.830;2024-03-02T04:10:32;32.03;;;14.63;;
44832;SDS011;30569;51.252;9.830;2024-03-02T04:12:59;27.50;;;14.97;;
44832;SDS011;30569;51.252;9.830;2024-03-02T04:15:24;27.13;;;14.80;;
44832;SDS011;30569;51.252;9.830;2024-03-02T04:17:50;25.93;;;14.10;;
44832;SDS011;30569;51.252;9.830;2024-03-02T04:20:15;23.00;;;12.67;;
44832;SDS011;30569;51.252;9.830;2024-03-02T04:22:41;27.67;;;14.83;;
44832;SDS011;30569;51.252;9.830;2024-03-02T04:25:07;26.47;;;14.30;;
44832;SDS011;30569;51.252;9.830;2024-03-02T04:27:32;28.00;;;13.87;;
44832;SDS011;30569;51.252;9.830;2024-03-02T04:29:58;27.67;;;13.87;;
44832;SDS011;30569;51.252;9.830;2024-03-02T04:32:25;27.47;;;14.80;;
44832;SDS011;30569;51.252;9.830;2024-03-02T04:34:51;25.43;;;14.17;;
44832;SDS011;30569;51.252;9.830;2024-03-02T04:37:17;24.20;;;13.53;;
44832;SDS011;30569;51.252;9.830;2024-03-02T04:39:42;27.43;;;14.97;;
44832;SDS011;30569;51.252;9.830;2024-03-02T04:42:08;25.80;;;12.23;;
44832;SDS011;30569;51.252;9.830;2024-03-02T04:44:34;28.60;;;12.97;;
44832;SDS011;30569;51.252;9.830;2024-03-02T04:46:59;28.23;;;13.80;;
44832;SDS011;30569;51.252;9.830;2024-03-02T04:49:25;28.63;;;13.53;;
44832;SDS011;30569;51.252;9.830;2024-03-02T04:51:51;30.50;;;14.70;;
44832;SDS011;30569;51.252;9.830;2024-03-02T04:54:16;27.80;;;13.90;;
44832;SDS011;30569;51.252;9.830;2024-03-02T04:56:42;25.33;;;13.90;;
44832;SDS011;30569;51.252;9.830;2024-03-02T04:59:14;27.50;;;14.03;;
44832;SDS011;30569;51.252;9.830;2024-03-02T05:01:40;31.17;;;14.80;;
44832;SDS011;30569;51.252;9.830;2024-03-02T05:04:06;27.53;;;13.87;;
44832;SDS011;30569;51.252;9.830;2024-03-02T05:06:32;27.93;;;13.43;;
44832;SDS011;30569;51.252;9.830;2024-03-02T05:08:58;25.70;;;13.07;;
44832;SDS011;30569;51.252;9.830;2024-03-02T05:11:24;28.23;;;14.40;;
44832;SDS011;30569;51.252;9.830;2024-03-02T05:14:05;24.57;;;13.43;;
44832;SDS011;30569;51.252;9.830;2024-03-02T05:16:34;27.50;;;13.90;;
44832;SDS011;30569;51.252;9.830;2024-03-02T05:19:00;26.47;;;14.47;;
44832;SDS011;30569;51.252;9.830;2024-03-02T05:21:25;32.53;;;15.23;;
44832;SDS011;30569;51.252;9.830;2024-03-02T05:23:51;27.33;;;13.83;;
44832;SDS011;30569;51.252;9.830;2024-03-02T05:26:17;27.30;;;13.83;;
44832;SDS011;30569;51.252;9.830;2024-03-02T05:28:42;24.50;;;13.37;;
44832;SDS011;30569;51.252;9.830;2024-03-02T05:31:11;29.60;;;13.67;;
44832;SDS011;30569;51.252;9.830;2024-03-02T05:33:39;26.13;;;13.60;;
44832;SDS011;30569;51.252;9.830;2024-03-02T05:36:05;29.50;;;13.87;;
44832;SDS011;30569;51.252;9.830;2024-03-02T05:38:32;30.73;;;13.53;;
44832;SDS011;30569;51.252;9.830;2024-03-02T05:40:59;29.00;;;14.50;;
44832;SDS011;30569;51.252;9.830;2024-03-02T05:43:25;30.60;;;14.27;;
44832;SDS011;30569;51.252;9.830;2024-03-02T05:45:50;32.77;;;14.63;;
44832;SDS011;30569;51.252;9.830;2024-03-02T05:48:16;30.63;;;15.20;;
44832;SDS011;30569;51.252;9.830;2024-03-02T05:50:41;30.63;;;15.50;;
44832;SDS011;30569;51.252;9.830;2024-03-02T05:53:07;27.80;;;14.03;;
44832;SDS011;30569;51.252;9.830;2024-03-02T05:55:33;37.27;;;15.97;;
44832;SDS011;30569;51.252;9.830;2024-03-02T05:57:58;34.27;;;16.03;;
44832;SDS011;30569;51.252;9.830;2024-03-02T06:00:42;29.60;;;14.85;;
44832;SDS011;30569;51.252;9.830;2024-03-02T06:03:08;30.87;;;14.37;;
44832;SDS011;30569;51.252;9.830;2024-03-02T06:05:34;28.60;;;14.33;;
44832;SDS011;30569;51.252;9.830;2024-03-02T06:08:00;29.10;;;14.57;;
44832;SDS011;30569;51.252;9.830;2024-03-02T06:10:26;32.47;;;15.50;;
44832;SDS011;30569;51.252;9.830;2024-03-02T06:12:51;28.73;;;14.63;;
44832;SDS011;30569;51.252;9.830;2024-03-02T06:15:17;30.83;;;14.97;;
44832;SDS011;30569;51.252;9.830;2024-03-02T06:17:42;29.67;;;15.60;;
44832;SDS011;30569;51.252;9.830;2024-03-02T06:20:08;28.57;;;14.00;;
44832;SDS011;30569;51.252;9.830;2024-03-02T06:22:34;31.83;;;14.83;;
44832;SDS011;30569;51.252;9.830;2024-03-02T06:25:00;30.90;;;14.77;;
44832;SDS011;30569;51.252;9.830;2024-03-02T06:27:25;28.67;;;13.90;;
44832;SDS011;30569;51.252;9.830;2024-03-02T06:29:51;26.60;;;14.17;;
44832;SDS011;30569;51.252;9.830;2024-03-02T06:32:18;24.70;;;13.37;;
44832;SDS011;30569;51.252;9.830;2024-03-02T06:34:44;29.17;;;14.70;;
44832;SDS011;30569;51.252;9.830;2024-03-02T06:37:10;32.23;;;14.77;;
44832;SDS011;30569;51.252;9.830;2024-03-02T06:39:36;27.30;;;13.87;;
44832;SDS011;30569;51.252;9.830;2024-03-02T06:42:01;29.47;;;15.03;;
44832;SDS011;30569;51.252;9.830;2024-03-02T06:44:27;29.47;;;14.87;;
44832;SDS011;30569;51.252;9.830;2024-03-02T06:46:53;29.07;;;14.37;;
44832;SDS011;30569;51.252;9.830;2024-03-02T06:49:19;35.17;;;15.77;;
44832;SDS011;30569;51.252;9.830;2024-03-02T06:51:44;30.30;;;14.70;;
44832;SDS011;30569;51.252;9.830;2024-03-02T06:54:10;29.43;;;15.23;;
44832;SDS011;30569;51.252;9.830;2024-03-02T06:56:35;28.57;;;14.90;;
44832;SDS011;30569;51.252;9.830;2024-03-02T06:59:03;31.83;;;15.40;;
44832;SDS011;30569;51.252;9.830;2024-03-02T07:01:29;31.67;;;15.87;;
44832;SDS011;30569;51.252;9.830;2024-03-02T07:03:55;46.00;;;22.27;;
44832;SDS011;30569;51.252;9.830;2024-03-02T07:06:20;41.17;;;20.03;;
44832;SDS011;30569;51.252;9.830;2024-03-02T07:08:46;45.37;;;21.67;;
44832;SDS011;30569;51.252;9.830;2024-03-02T07:11:12;39.70;;;19.23;;
44832;SDS011;30569;51.252;9.830;2024-03-02T07:13:38;34.13;;;17.33;;
44832;SDS011;30569;51.252;9.830;2024-03-02T07:16:03;34.63;;;17.70;;
44832;SDS011;30569;51.252;9.830;2024-03-02T07:18:29;35.67;;;16.23;;
44832;SDS011;30569;51.252;9.830;2024-03-02T07:20:55;30.77;;;15.27;;
44832;SDS011;30569;51.252;9.830;2024-03-02T07:23:24;29.77;;;16.17;;
44832;SDS011;30569;51.252;9.830;2024-03-02T07:25:52;30.37;;;16.03;;
44832;SDS011;30569;51.252;9.830;2024-03-02T07:28:21;33.83;;;16.50;;
44832;SDS011;30569;51.252;9.830;2024-03-02T07:30:47;34.50;;;18.03;;
44832;SDS011;30569;51.252;9.830;2024-03-02T07:33:23;57.03;;;28.07;;
44832;SDS011;30569;51.252;9.830;2024-03-02T07:35:49;56.50;;;28.45;;
44832;SDS011;30569;51.252;9.830;2024-03-02T07:38:15;53.03;;;27.20;;
44832;SDS011;30569;51.252;9.830;2024-03-02T07:40:40;48.25;;;23.35;;
44832;SDS011;30569;51.252;9.830;2024-03-02T07:43:07;36.78;;;19.38;;
44832;SDS011;30569;51.252;9.830;2024-03-02T07:45:33;36.00;;;16.70;;
44832;SDS011;30569;51.252;9.830;2024-03-02T07:48:01;30.48;;;17.10;;
44832;SDS011;30569;51.252;9.830;2024-03-02T07:50:28;34.60;;;17.23;;
44832;SDS011;30569;51.252;9.830;2024-03-02T07:52:55;31.58;;;17.73;;
44832;SDS011;30569;51.252;9.830;2024-03-02T07:55:21;34.17;;;17.90;;
44832;SDS011;30569;51.252;9.830;2024-03-02T07:57:48;28.02;;;15.38;;
44832;SDS011;30569;51.252;9.830;2024-03-02T08:00:15;26.17;;;14.98;;
44832;SDS011;30569;51.252;9.830;2024-03-02T08:02:40;25.23;;;13.35;;
44832;SDS011;30569;51.252;9.830;2024-03-02T08:05:07;23.55;;;13.07;;
44832;SDS011;30569;51.252;9.830;2024-03-02T08:07:33;26.95;;;13.00;;
44832;SDS011;30569;51.252;9.830;2024-03-02T08:09:59;26.98;;;14.20;;
44832;SDS011;30569;51.252;9.830;2024-03-02T08:12:25;21.63;;;12.73;;
44832;SDS011;30569;51.252;9.830;2024-03-02T08:14:50;24.23;;;13.70;;
44832;SDS011;30569;51.252;9.830;2024-03-02T08:17:16;21.02;;;12.00;;
44832;SDS011;30569;51.252;9.830;2024-03-02T08:19:42;20.77;;;12.40;;
44832;SDS011;30569;51.252;9.830;2024-03-02T08:22:08;23.27;;;12.50;;
44832;SDS011;30569;51.252;9.830;2024-03-02T08:24:34;24.13;;;13.02;;
44832;SDS011;30569;51.252;9.830;2024-03-02T08:27:00;20.02;;;12.07;;
44832;SDS011;30569;51.252;9.830;2024-03-02T08:29:26;23.10;;;12.48;;
44832;SDS011;30569;51.252;9.830;2024-03-02T08:31:52;19.60;;;11.45;;
44832;SDS011;30569;51.252;9.830;2024-03-02T08:34:18;18.25;;;10.50;;
44832;SDS011;30569;51.252;9.830;2024-03-02T08:36:44;20.00;;;10.48;;
44832;SDS011;30569;51.252;9.830;2024-03-02T08:39:11;18.13;;;9.70;;
44832;SDS011;30569;51.252;9.830;2024-03-02T08:41:44;16.13;;;9.82;;
44832;SDS011;30569;51.252;9.830;2024-03-02T08:44:10;18.88;;;11.27;;
44832;SDS011;30569;51.252;9.830;2024-03-02T08:46:37;19.30;;;10.70;;
44832;SDS011;30569;51.252;9.830;2024-03-02T08:49:03;19.13;;;11.88;;
44832;SDS011;30569;51.252;9.830;2024-03-02T08:51:29;17.33;;;10.07;;
44832;SDS011;30569;51.252;9.830;2024-03-02T08:53:55;21.38;;;12.57;;
44832;SDS011;30569;51.252;9.830;2024-03-02T08:56:20;22.27;;;13.02;;
44832;SDS011;30569;51.252;9.830;2024-03-02T08:58:50;26.30;;;14.75;;
44832;SDS011;30569;51.252;9.830;2024-03-02T09:01:16;19.90;;;10.77;;
44832;SDS011;30569;51.252;9.830;2024-03-02T09:03:42;18.00;;;10.60;;
44832;SDS011;30569;51.252;9.830;2024-03-02T09:06:12;18.73;;;10.63;;
44832;SDS011;30569;51.252;9.830;2024-03-02T09:08:38;24.75;;;13.38;;
44832;SDS011;30569;51.252;9.830;2024-03-02T09:11:04;22.83;;;14.15;;
44832;SDS011;30569;51.252;9.830;2024-03-02T09:13:31;23.33;;;12.55;;
44832;SDS011;30569;51.252;9.830;2024-03-02T09:15:57;20.08;;;11.90;;
44832;SDS011;30569;51.252;9.830;2024-03-02T09:18:23;17.60;;;11.15;;
44832;SDS011;30569;51.252;9.830;2024-03-02T09:20:48;18.17;;;10.93;;
44832;SDS011;30569;51.252;9.830;2024-03-02T09:23:14;19.50;;;10.50;;
44832;SDS011;30569;51.252;9.830;2024-03-02T09:25:39;16.70;;;9.68;;
44832;SDS011;30569;51.252;9.830;2024-03-02T09:28:05;15.85;;;9.52;;
44832;SDS011;30569;51.252;9.830;2024-03-02T09:30:32;19.58;;;11.20;;
44832;SDS011;30569;51.252;9.830;2024-03-02T09:32:57;17.25;;;9.85;;
44832;SDS011;30569;51.252;9.830;2024-03-02T09:35:23;17.50;;;10.55;;
44832;SDS011;30569;51.252;9.830;2024-03-02T09:37:49;21.77;;;13.13;;
44832;SDS011;30569;51.252;9.830;2024-03-02T09:40:14;20.67;;;11.93;;
44832;SDS011;30569;51.252;9.830;2024-03-02T09:42:41;18.10;;;11.27;;
44832;SDS011;30569;51.252;9.830;2024-03-02T09:45:08;18.50;;;9.98;;
44832;SDS011;30569;51.252;9.830;2024-03-02T09:47:34;15.23;;;9.75;;
44832;SDS011;30569;51.252;9.830;2024-03-02T09:50:00;15.88;;;10.13;;
44832;SDS011;30569;51.252;9.830;2024-03-02T09:52:25;16.75;;;9.10;;
44832;SDS011;30569;51.252;9.830;2024-03-02T09:54:51;15.95;;;10.65;;
44832;SDS011;30569;51.252;9.830;2024-03-02T09:57:17;18.73;;;10.95;;
44832;SDS011;30569;51.252;9.830;2024-03-02T09:59:43;16.60;;;9.20;;
44832;SDS011;30569;51.252;9.830;2024-03-02T10:02:10;16.45;;;9.27;;
44832;SDS011;30569;51.252;9.830;2024-03-02T10:04:36;15.75;;;9.55;;
44832;SDS011;30569;51.252;9.830;2024-03-02T10:09:43;15.05;;;8.35;;
44832;SDS011;30569;51.252;9.830;2024-03-02T10:12:11;13.82;;;7.68;;
44832;SDS011;30569;51.252;9.830;2024-03-02T10:14:38;14.75;;;8.48;;
44832;SDS011;30569;51.252;9.830;2024-03-02T10:19:30;11.93;;;7.18;;
44832;SDS011;30569;51.252;9.830;2024-03-02T10:22:03;13.00;;;8.07;;
44832;SDS011;30569;51.252;9.830;2024-03-02T10:27:10;14.27;;;7.53;;
44832;SDS011;30569;51.252;9.830;2024-03-02T10:29:41;12.32;;;6.60;;
44832;SDS011;30569;51.252;9.830;2024-03-02T10:32:10;12.13;;;6.82;;
44832;SDS011;30569;51.252;9.830;2024-03-02T10:34:37;12.75;;;6.95;;
44832;SDS011;30569;51.252;9.830;2024-03-02T10:37:06;12.27;;;6.40;;
44832;SDS011;30569;51.252;9.830;2024-03-02T10:39:32;11.25;;;6.05;;
44832;SDS011;30569;51.252;9.830;2024-03-02T10:42:00;15.38;;;7.03;;
44832;SDS011;30569;51.252;9.830;2024-03-02T10:44:28;9.60;;;5.40;;
44832;SDS011;30569;51.252;9.830;2024-03-02T10:46:55;11.52;;;6.28;;
44832;SDS011;30569;51.252;9.830;2024-03-02T10:49:21;10.60;;;5.18;;
44832;SDS011;30569;51.252;9.830;2024-03-02T10:51:49;11.77;;;5.68;;
44832;SDS011;30569;51.252;9.830;2024-03-02T10:54:15;10.77;;;5.82;;
44832;SDS011;30569;51.252;9.830;2024-03-02T10:56:41;9.10;;;5.25;;
44832;SDS011;30569;51.252;9.830;2024-03-02T10:59:17;8.00;;;4.95;;
44832;SDS011;30569;51.252;9.830;2024-03-02T11:01:46;8.93;;;5.22;;
44832;SDS011;30569;51.252;9.830;2024-03-02T11:04:13;9.00;;;4.93;;
44832;SDS011;30569;51.252;9.830;2024-03-02T11:06:44;9.35;;;4.72;;
44832;SDS011;30569;51.252;9.830;2024-03-02T11:09:13;9.15;;;4.65;;
44832;SDS011;30569;51.252;9.830;2024-03-02T11:11:42;9.57;;;5.10;;
44832;SDS011;30569;51.252;9.830;2024-03-02T11:14:11;8.10;;;4.07;;
44832;SDS011;30569;51.252;9.830;2024-03-02T11:16:41;9.68;;;5.20;;
44832;SDS011;30569;51.252;9.830;2024-03-02T11:19:08;10.32;;;5.22;;
44832;SDS011;30569;51.252;9.830;2024-03-02T11:21:36;8.75;;;4.75;;
44832;SDS011;30569;51.252;9.830;2024-03-02T11:26:48;8.00;;;4.25;;
44832;SDS011;30569;51.252;9.830;2024-03-02T11:32:04;8.07;;;3.88;;
44832;SDS011;30569;51.252;9.830;2024-03-02T11:34:34;7.10;;;3.47;;
44832;SDS011;30569;51.252;9.830;2024-03-02T11:37:01;6.57;;;3.40;;
44832;SDS011;30569;51.252;9.830;2024-03-02T11:39:27;6.50;;;3.17;;
44832;SDS011;30569;51.252;9.830;2024-03-02T11:41:53;7.50;;;4.13;;
44832;SDS011;30569;51.252;9.830;2024-03-02T11:44:26;10.15;;;4.68;;
44832;SDS011;30569;51.252;9.830;2024-03-02T11:47:01;8.10;;;4.38;;
44832;SDS011;30569;51.252;9.830;2024-03-02T11:49:46;8.13;;;4.03;;
44832;SDS011;30569;51.252;9.830;2024-03-02T11:52:15;6.80;;;2.95;;
44832;SDS011;30569;51.252;9.830;2024-03-02T11:54:42;6.75;;;3.10;;
44832;SDS011;30569;51.252;9.830;2024-03-02T11:57:14;5.88;;;2.67;;
44832;SDS011;30569;51.252;9.830;2024-03-02T11:59:41;6.43;;;3.45;;
44832;SDS011;30569;51.252;9.830;2024-03-02T12:02:12;7.00;;;3.65;;
44832;SDS011;30569;51.252;9.830;2024-03-02T12:04:40;5.38;;;2.97;;
44832;SDS011;30569;51.252;9.830;2024-03-02T12:07:06;6.25;;;3.00;;
44832;SDS011;30569;51.252;9.830;2024-03-02T12:09:34;7.82;;;2.92;;
44832;SDS011;30569;51.252;9.830;2024-03-02T12:12:06;5.05;;;2.47;;
44832;SDS011;30569;51.252;9.830;2024-03-02T12:14:33;7.45;;;3.10;;
44832;SDS011;30569;51.252;9.830;2024-03-02T12:17:01;6.85;;;3.50;;
44832;SDS011;30569;51.252;9.830;2024-03-02T12:19:27;8.30;;;4.60;;
44832;SDS011;30569;51.252;9.830;2024-03-02T12:21:55;6.88;;;2.75;;
44832;SDS011;30569;51.252;9.830;2024-03-02T12:24:21;5.40;;;2.30;;
44832;SDS011;30569;51.252;9.830;2024-03-02T12:26:49;5.63;;;2.67;;
44832;SDS011;30569;51.252;9.830;2024-03-02T12:29:15;9.52;;;3.08;;
44832;SDS011;30569;51.252;9.830;2024-03-02T12:31:44;6.22;;;3.17;;
44832;SDS011;30569;51.252;9.830;2024-03-02T12:34:16;6.53;;;2.92;;
44832;SDS011;30569;51.252;9.830;2024-03-02T12:36:42;6.55;;;2.92;;
44832;SDS011;30569;51.252;9.830;2024-03-02T12:39:08;6.35;;;3.20;;
44832;SDS011;30569;51.252;9.830;2024-03-02T12:41:37;6.63;;;3.15;;
44832;SDS011;30569;51.252;9.830;2024-03-02T12:44:03;6.85;;;3.08;;
44832;SDS011;30569;51.252;9.830;2024-03-02T12:46:29;5.97;;;3.03;;
44832;SDS011;30569;51.252;9.830;2024-03-02T12:48:55;5.38;;;2.70;;
44832;SDS011;30569;51.252;9.830;2024-03-02T12:51:21;6.03;;;2.72;;
44832;SDS011;30569;51.252;9.830;2024-03-02T12:53:53;5.30;;;2.55;;
44832;SDS011;30569;51.252;9.830;2024-03-02T12:56:21;5.15;;;2.55;;
44832;SDS011;30569;51.252;9.830;2024-03-02T12:58:47;5.97;;;2.90;;
44832;SDS011;30569;51.252;9.830;2024-03-02T13:01:14;6.25;;;3.17;;
44832;SDS011;30569;51.252;9.830;2024-03-02T13:03:40;7.15;;;3.40;;
44832;SDS011;30569;51.252;9.830;2024-03-02T13:06:07;9.63;;;4.07;;
44832;SDS011;30569;51.252;9.830;2024-03-02T13:08:33;5.97;;;3.22;;
44832;SDS011;30569;51.252;9.830;2024-03-02T13:11:00;7.18;;;3.17;;
44832;SDS011;30569;51.252;9.830;2024-03-02T13:13:26;8.00;;;3.15;;
44832;SDS011;30569;51.252;9.830;2024-03-02T13:15:54;8.57;;;3.35;;
44832;SDS011;30569;51.252;9.830;2024-03-02T13:18:21;5.82;;;3.25;;
44832;SDS011;30569;51.252;9.830;2024-03-02T13:20:47;8.18;;;3.25;;
44832;SDS011;30569;51.252;9.830;2024-03-02T13:23:12;7.13;;;4.07;;
44832;SDS011;30569;51.252;9.830;2024-03-02T13:25:39;8.82;;;4.28;;
44832;SDS011;30569;51.252;9.830;2024-03-02T13:28:05;8.82;;;4.20;;
44832;SDS011;30569;51.252;9.830;2024-03-02T13:30:31;9.50;;;4.55;;
44832;SDS011;30569;51.252;9.830;2024-03-02T13:32:57;7.47;;;4.35;;
44832;SDS011;30569;51.252;9.830;2024-03-02T13:35:23;7.40;;;3.42;;
44832;SDS011;30569;51.252;9.830;2024-03-02T13:37:48;10.75;;;5.20;;
44832;SDS011;30569;51.252;9.830;2024-03-02T13:40:15;9.25;;;5.40;;
44832;SDS011;30569;51.252;9.830;2024-03-02T13:42:45;9.63;;;5.07;;
44832;SDS011;30569;51.252;9.830;2024-03-02T13:45:11;11.32;;;6.63;;
44832;SDS011;30569;51.252;9.830;2024-03-02T13:47:38;11.57;;;6.70;;
44832;SDS011;30569;51.252;9.830;2024-03-02T13:50:03;11.70;;;6.55;;
44832;SDS011;30569;51.252;9.830;2024-03-02T13:52:30;11.52;;;6.72;;
44832;SDS011;30569;51.252;9.830;2024-03-02T13:54:55;10.85;;;6.35;;
44832;SDS011;30569;51.252;9.830;2024-03-02T13:57:21;10.70;;;6.03;;
44832;SDS011;30569;51.252;9.830;2024-03-02T13:59:47;9.40;;;5.25;;
44832;SDS011;30569;51.252;9.830;2024-03-02T14:02:13;9.13;;;5.50;;
44832;SDS011;30569;51.252;9.830;2024-03-02T14:04:38;10.05;;;5.57;;
44832;SDS011;30569;51.252;9.830;2024-03-02T14:07:04;10.48;;;6.07;;
44832;SDS011;30569;51.252;9.830;2024-03-02T14:09:33;11.63;;;5.65;;
44832;SDS011;30569;51.252;9.830;2024-03-02T14:11:59;10.10;;;5.10;;
44832;SDS011;30569;51.252;9.830;2024-03-02T14:14:25;9.35;;;5.32;;
44832;SDS011;30569;51.252;9.830;2024-03-02T14:16:52;8.30;;;4.68;;
44832;SDS011;30569;51.252;9.830;2024-03-02T14:19:19;7.72;;;4.30;;
44832;SDS011;30569;51.252;9.830;2024-03-02T14:21:46;9.93;;;4.90;;
44832;SDS011;30569;51.252;9.830;2024-03-02T14:24:12;8.38;;;4.28;;
44832;SDS011;30569;51.252;9.830;2024-03-02T14:26:38;9.77;;;4.38;;
44832;SDS011;30569;51.252;9.830;2024-03-02T14:29:04;8.13;;;4.10;;
44832;SDS011;30569;51.252;9.830;2024-03-02T14:31:30;6.63;;;3.10;;
44832;SDS011;30569;51.252;9.830;2024-03-02T14:33:56;6.20;;;3.38;;
44832;SDS011;30569;51.252;9.830;2024-03-02T14:36:22;8.13;;;3.83;;
44832;SDS011;30569;51.252;9.830;2024-03-02T14:38:48;7.07;;;3.80;;
44832;SDS011;30569;51.252;9.830;2024-03-02T14:41:14;9.52;;;4.47;;